sensor_id;sensor_type;location;lat;lon;timestamp;P1;durP1;ratioP1;P2;durP2;ratioP2
49109;SDS011;34921;52.320;16.142;2023-01-01T00:02:18;14.00;;;6.97;;
49109;SDS011;34921;52.320;16.142;2023-01-01T00:04:46;13.88;;;6.17;;
49109;SDS011;34921;52.320;16.142;2023-01-01T00:07:15;14.78;;;6.80;;
49109;SDS011;34921;52.320;16.142;2023-01-01T00:09:43;12.60;;;5.45;;
49109;SDS011;34921;52.320;16.142;2023-01-01T00:12:30;13.03;;;6.50;;
49109;SDS011;34921;52.320;16.142;2023-01-01T00:14:59;12.15;;;6.30;;
49109;SDS011;34921;52.320;16.142;2023-01-01T00:17:30;12.33;;;6.80;;
49109;SDS011;34921;52.320;16.142;2023-01-01T00:19:58;9.30;;;5.22;;
49109;SDS011;34921;52.320;16.142;2023-01-01T00:22:26;9.60;;;5.55;;
49109;SDS011;34921;52.320;16.142;2023-01-01T00:24:54;8.70;;;5.15;;
49109;SDS011;34921;52.320;16.142;2023-01-01T00:27:22;9.50;;;5.47;;
49109;SDS011;34921;52.320;16.142;2023-01-01T00:29:50;9.45;;;4.58;;
49109;SDS011;34921;52.320;16.142;2023-01-01T00:32:18;8.63;;;4.55;;
49109;SDS011;34921;52.320;16.142;2023-01-01T00:34:46;9.30;;;5.15;;
49109;SDS011;34921;52.320;16.142;2023-01-01T00:37:14;7.90;;;4.40;;
49109;SDS011;34921;52.320;16.142;2023-01-01T00:39:44;7.60;;;4.77;;
49109;SDS011;34921;52.320;16.142;2023-01-01T00:42:12;9.43;;;4.30;;
49109;SDS011;34921;52.320;16.142;2023-01-01T00:44:40;8.53;;;4.83;;
49109;SDS011;34921;52.320;16.142;2023-01-01T00:47:07;8.33;;;4.90;;
49109;SDS011;34921;52.320;16.142;2023-01-01T00:49:36;11.03;;;4.95;;
49109;SDS011;34921;52.320;16.142;2023-01-01T00:52:04;9.45;;;4.53;;
49109;SDS011;34921;52.320;16.142;2023-01-01T00:54:32;8.23;;;4.55;;
49109;SDS011;34921;52.320;16.142;2023-01-01T00:56:59;9.55;;;4.30;;
49109;SDS011;34921;52.320;16.142;2023-01-01T00:59:27;6.67;;;3.80;;
49109;SDS011;34921;52.320;16.142;2023-01-01T01:01:55;6.45;;;4.00;;
49109;SDS011;34921;52.320;16.142;2023-01-01T01:04:24;6.42;;;3.80;;
49109;SDS011;34921;52.320;16.142;2023-01-01T01:06:52;5.25;;;3.52;;
49109;SDS011;34921;52.320;16.142;2023-01-01T01:09:20;6.40;;;3.47;;
49109;SDS011;34921;52.320;16.142;2023-01-01T01:11:48;5.15;;;3.22;;
49109;SDS011;34921;52.320;16.142;2023-01-01T01:14:16;6.75;;;3.62;;
49109;SDS011;34921;52.320;16.142;2023-01-01T01:16:44;9.73;;;3.92;;
49109;SDS011;34921;52.320;16.142;2023-01-01T01:19:12;9.73;;;4.28;;
49109;SDS011;34921;52.320;16.142;2023-01-01T01:21:45;8.08;;;3.98;;
49109;SDS011;34921;52.320;16.142;2023-01-01T01:24:13;5.67;;;3.12;;
49109;SDS011;34921;52.320;16.142;2023-01-01T01:26:41;7.03;;;3.98;;
49109;SDS011;34921;52.320;16.142;2023-01-01T01:29:09;7.45;;;3.37;;
49109;SDS011;34921;52.320;16.142;2023-01-01T01:31:37;7.05;;;3.00;;
49109;SDS011;34921;52.320;16.142;2023-01-01T01:34:05;7.50;;;3.55;;
49109;SDS011;34921;52.320;16.142;2023-01-01T01:36:33;6.78;;;3.05;;
49109;SDS011;34921;52.320;16.142;2023-01-01T01:39:01;6.10;;;3.12;;
49109;SDS011;34921;52.320;16.142;2023-01-01T01:41:29;5.60;;;2.85;;
49109;SDS011;34921;52.320;16.142;2023-01-01T01:49:04;5.95;;;3.30;;
49109;SDS011;34921;52.320;16.142;2023-01-01T01:51:43;8.47;;;3.00;;
49109;SDS011;34921;52.320;16.142;2023-01-01T01:54:15;9.80;;;3.20;;
49109;SDS011;34921;52.320;16.142;2023-01-01T01:59:21;9.15;;;2.33;;
49109;SDS011;34921;52.320;16.142;2023-01-01T02:01:52;4.20;;;2.60;;
49109;SDS011;34921;52.320;16.142;2023-01-01T02:04:20;6.08;;;2.50;;
49109;SDS011;34921;52.320;16.142;2023-01-01T02:06:48;5.62;;;2.80;;
49109;SDS011;34921;52.320;16.142;2023-01-01T02:09:17;6.78;;;3.05;;
49109;SDS011;34921;52.320;16.142;2023-01-01T02:11:45;6.70;;;2.92;;
49109;SDS011;34921;52.320;16.142;2023-01-01T02:14:13;6.87;;;3.10;;
49109;SDS011;34921;52.320;16.142;2023-01-01T02:16:58;4.67;;;2.50;;
49109;SDS011;34921;52.320;16.142;2023-01-01T02:22:51;5.87;;;2.83;;
49109;SDS011;34921;52.320;16.142;2023-01-01T02:25:47;6.72;;;3.10;;
49109;SDS011;34921;52.320;16.142;2023-01-01T02:28:42;7.08;;;2.90;;
49109;SDS011;34921;52.320;16.142;2023-01-01T02:31:13;6.47;;;2.95;;
49109;SDS011;34921;52.320;16.142;2023-01-01T02:33:45;5.90;;;2.75;;
49109;SDS011;34921;52.320;16.142;2023-01-01T02:36:14;5.37;;;2.80;;
49109;SDS011;34921;52.320;16.142;2023-01-01T02:38:43;5.70;;;2.80;;
49109;SDS011;34921;52.320;16.142;2023-01-01T02:41:15;5.62;;;2.87;;
49109;SDS011;34921;52.320;16.142;2023-01-01T02:43:50;4.67;;;2.65;;
49109;SDS011;34921;52.320;16.142;2023-01-01T02:46:19;5.47;;;2.52;;
49109;SDS011;34921;52.320;16.142;2023-01-01T02:48:48;5.53;;;2.67;;
49109;SDS011;34921;52.320;16.142;2023-01-01T02:54:46;5.33;;;2.40;;
49109;SDS011;34921;52.320;16.142;2023-01-01T02:57:35;5.87;;;2.45;;
49109;SDS011;34921;52.320;16.142;2023-01-01T03:00:11;6.53;;;2.50;;
49109;SDS011;34921;52.320;16.142;2023-01-01T03:05:57;5.97;;;2.50;;
49109;SDS011;34921;52.320;16.142;2023-01-01T03:09:07;5.90;;;2.80;;
49109;SDS011;34921;52.320;16.142;2023-01-01T03:14:23;5.75;;;2.92;;
49109;SDS011;34921;52.320;16.142;2023-01-01T03:17:02;6.12;;;2.95;;
49109;SDS011;34921;52.320;16.142;2023-01-01T03:19:53;6.00;;;3.17;;
49109;SDS011;34921;52.320;16.142;2023-01-01T03:22:27;7.93;;;3.00;;
49109;SDS011;34921;52.320;16.142;2023-01-01T03:25:03;8.68;;;2.50;;
49109;SDS011;34921;52.320;16.142;2023-01-01T03:27:39;5.97;;;2.22;;
49109;SDS011;34921;52.320;16.142;2023-01-01T03:30:10;7.95;;;2.70;;
49109;SDS011;34921;52.320;16.142;2023-01-01T03:32:41;8.95;;;3.10;;
49109;SDS011;34921;52.320;16.142;2023-01-01T03:35:27;7.45;;;2.80;;
49109;SDS011;34921;52.320;16.142;2023-01-01T03:38:36;7.30;;;2.52;;
49109;SDS011;34921;52.320;16.142;2023-01-01T03:41:10;5.60;;;2.40;;
49109;SDS011;34921;52.320;16.142;2023-01-01T03:43:43;7.60;;;3.08;;
49109;SDS011;34921;52.320;16.142;2023-01-01T03:46:33;6.42;;;3.15;;
49109;SDS011;34921;52.320;16.142;2023-01-01T03:49:03;9.50;;;3.25;;
49109;SDS011;34921;52.320;16.142;2023-01-01T03:57:02;5.50;;;2.47;;
49109;SDS011;34921;52.320;16.142;2023-01-01T03:59:33;7.30;;;2.83;;
49109;SDS011;34921;52.320;16.142;2023-01-01T04:02:07;8.30;;;2.40;;
49109;SDS011;34921;52.320;16.142;2023-01-01T04:04:37;6.15;;;2.85;;
49109;SDS011;34921;52.320;16.142;2023-01-01T04:07:05;7.70;;;2.70;;
49109;SDS011;34921;52.320;16.142;2023-01-01T04:09:33;5.60;;;2.75;;
49109;SDS011;34921;52.320;16.142;2023-01-01T04:12:02;5.80;;;2.50;;
49109;SDS011;34921;52.320;16.142;2023-01-01T04:14:32;5.30;;;2.37;;
49109;SDS011;34921;52.320;16.142;2023-01-01T04:17:06;8.20;;;2.92;;
49109;SDS011;34921;52.320;16.142;2023-01-01T04:19:36;4.80;;;2.60;;
49109;SDS011;34921;52.320;16.142;2023-01-01T04:22:04;5.83;;;2.25;;
49109;SDS011;34921;52.320;16.142;2023-01-01T04:24:32;5.65;;;2.58;;
49109;SDS011;34921;52.320;16.142;2023-01-01T04:27:00;8.10;;;2.52;;
49109;SDS011;34921;52.320;16.142;2023-01-01T04:29:27;8.28;;;2.55;;
49109;SDS011;34921;52.320;16.142;2023-01-01T04:31:55;5.70;;;2.58;;
49109;SDS011;34921;52.320;16.142;2023-01-01T04:34:23;9.03;;;3.67;;
49109;SDS011;34921;52.320;16.142;2023-01-01T04:36:51;7.00;;;2.77;;
49109;SDS011;34921;52.320;16.142;2023-01-01T04:39:19;10.28;;;2.60;;
49109;SDS011;34921;52.320;16.142;2023-01-01T04:41:47;5.12;;;2.47;;
49109;SDS011;34921;52.320;16.142;2023-01-01T04:44:15;5.33;;;2.35;;
49109;SDS011;34921;52.320;16.142;2023-01-01T04:46:43;6.03;;;2.60;;
49109;SDS011;34921;52.320;16.142;2023-01-01T04:49:11;8.13;;;3.58;;
49109;SDS011;34921;52.320;16.142;2023-01-01T04:51:39;11.30;;;4.67;;
49109;SDS011;34921;52.320;16.142;2023-01-01T04:54:07;7.87;;;3.30;;
49109;SDS011;34921;52.320;16.142;2023-01-01T04:56:35;7.85;;;3.15;;
49109;SDS011;34921;52.320;16.142;2023-01-01T04:59:03;8.35;;;3.15;;
49109;SDS011;34921;52.320;16.142;2023-01-01T05:01:31;6.62;;;2.80;;
49109;SDS011;34921;52.320;16.142;2023-01-01T05:03:59;6.78;;;2.80;;
49109;SDS011;34921;52.320;16.142;2023-01-01T05:06:28;8.58;;;3.30;;
49109;SDS011;34921;52.320;16.142;2023-01-01T05:08:56;11.73;;;6.00;;
49109;SDS011;34921;52.320;16.142;2023-01-01T05:11:27;9.70;;;3.92;;
49109;SDS011;34921;52.320;16.142;2023-01-01T05:14:00;7.28;;;3.15;;
49109;SDS011;34921;52.320;16.142;2023-01-01T05:16:29;5.53;;;2.55;;
49109;SDS011;34921;52.320;16.142;2023-01-01T05:19:01;8.73;;;3.37;;
49109;SDS011;34921;52.320;16.142;2023-01-01T05:21:31;7.20;;;3.15;;
49109;SDS011;34921;52.320;16.142;2023-01-01T05:24:05;7.25;;;3.25;;
49109;SDS011;34921;52.320;16.142;2023-01-01T05:26:35;16.07;;;5.47;;
49109;SDS011;34921;52.320;16.142;2023-01-01T05:29:04;8.40;;;3.30;;
49109;SDS011;34921;52.320;16.142;2023-01-01T05:31:33;6.40;;;3.00;;
49109;SDS011;34921;52.320;16.142;2023-01-01T05:34:02;11.50;;;4.10;;
49109;SDS011;34921;52.320;16.142;2023-01-01T05:36:32;8.53;;;3.42;;
49109;SDS011;34921;52.320;16.142;2023-01-01T05:39:05;8.00;;;3.33;;
49109;SDS011;34921;52.320;16.142;2023-01-01T05:41:34;7.87;;;2.92;;
49109;SDS011;34921;52.320;16.142;2023-01-01T05:44:03;6.45;;;2.83;;
49109;SDS011;34921;52.320;16.142;2023-01-01T05:46:33;8.10;;;3.40;;
49109;SDS011;34921;52.320;16.142;2023-01-01T05:49:01;9.58;;;2.90;;
49109;SDS011;34921;52.320;16.142;2023-01-01T05:51:29;7.72;;;2.87;;
49109;SDS011;34921;52.320;16.142;2023-01-01T05:53:57;7.62;;;3.17;;
49109;SDS011;34921;52.320;16.142;2023-01-01T05:56:25;13.62;;;4.33;;
49109;SDS011;34921;52.320;16.142;2023-01-01T05:58:54;7.50;;;3.25;;
49109;SDS011;34921;52.320;16.142;2023-01-01T06:01:26;6.90;;;2.40;;
49109;SDS011;34921;52.320;16.142;2023-01-01T06:03:55;8.23;;;3.10;;
49109;SDS011;34921;52.320;16.142;2023-01-01T06:06:25;7.83;;;2.87;;
49109;SDS011;34921;52.320;16.142;2023-01-01T06:08:56;6.17;;;2.70;;
49109;SDS011;34921;52.320;16.142;2023-01-01T06:11:26;7.75;;;3.00;;
49109;SDS011;34921;52.320;16.142;2023-01-01T06:13:55;9.63;;;3.10;;
49109;SDS011;34921;52.320;16.142;2023-01-01T06:16:25;11.90;;;3.67;;
49109;SDS011;34921;52.320;16.142;2023-01-01T06:18:54;9.88;;;3.30;;
49109;SDS011;34921;52.320;16.142;2023-01-01T06:21:23;6.50;;;2.87;;
49109;SDS011;34921;52.320;16.142;2023-01-01T06:23:53;6.90;;;2.85;;
49109;SDS011;34921;52.320;16.142;2023-01-01T06:26:23;9.80;;;3.17;;
49109;SDS011;34921;52.320;16.142;2023-01-01T06:28:53;6.83;;;2.90;;
49109;SDS011;34921;52.320;16.142;2023-01-01T06:31:22;7.77;;;3.23;;
49109;SDS011;34921;52.320;16.142;2023-01-01T06:33:51;7.67;;;2.95;;
49109;SDS011;34921;52.320;16.142;2023-01-01T06:36:21;5.85;;;2.98;;
49109;SDS011;34921;52.320;16.142;2023-01-01T06:38:51;8.13;;;2.90;;
49109;SDS011;34921;52.320;16.142;2023-01-01T06:41:22;7.60;;;2.75;;
49109;SDS011;34921;52.320;16.142;2023-01-01T06:43:51;10.38;;;3.50;;
49109;SDS011;34921;52.320;16.142;2023-01-01T06:46:28;9.48;;;2.77;;
49109;SDS011;34921;52.320;16.142;2023-01-01T06:48:59;10.55;;;3.02;;
49109;SDS011;34921;52.320;16.142;2023-01-01T06:51:39;9.10;;;3.10;;
49109;SDS011;34921;52.320;16.142;2023-01-01T06:54:08;11.28;;;3.58;;
49109;SDS011;34921;52.320;16.142;2023-01-01T06:56:37;11.30;;;4.20;;
49109;SDS011;34921;52.320;16.142;2023-01-01T06:59:05;9.65;;;4.00;;
49109;SDS011;34921;52.320;16.142;2023-01-01T07:01:34;11.43;;;4.40;;
49109;SDS011;34921;52.320;16.142;2023-01-01T07:04:09;10.00;;;3.77;;
49109;SDS011;34921;52.320;16.142;2023-01-01T07:06:39;11.40;;;4.33;;
49109;SDS011;34921;52.320;16.142;2023-01-01T07:09:08;11.15;;;4.45;;
49109;SDS011;34921;52.320;16.142;2023-01-01T07:11:36;9.48;;;3.92;;
49109;SDS011;34921;52.320;16.142;2023-01-01T07:14:04;9.53;;;4.22;;
49109;SDS011;34921;52.320;16.142;2023-01-01T07:16:32;9.85;;;4.42;;
49109;SDS011;34921;52.320;16.142;2023-01-01T07:19:00;8.90;;;4.00;;
49109;SDS011;34921;52.320;16.142;2023-01-01T07:21:30;10.28;;;4.97;;
49109;SDS011;34921;52.320;16.142;2023-01-01T07:24:02;8.00;;;4.07;;
49109;SDS011;34921;52.320;16.142;2023-01-01T07:26:32;12.07;;;4.12;;
49109;SDS011;34921;52.320;16.142;2023-01-01T07:29:01;8.75;;;4.92;;
49109;SDS011;34921;52.320;16.142;2023-01-01T07:31:29;10.53;;;5.05;;
49109;SDS011;34921;52.320;16.142;2023-01-01T07:33:56;15.20;;;5.40;;
49109;SDS011;34921;52.320;16.142;2023-01-01T07:36:24;13.95;;;4.80;;
49109;SDS011;34921;52.320;16.142;2023-01-01T07:38:52;12.37;;;4.80;;
49109;SDS011;34921;52.320;16.142;2023-01-01T07:41:20;10.53;;;4.25;;
49109;SDS011;34921;52.320;16.142;2023-01-01T07:43:48;8.68;;;4.70;;
49109;SDS011;34921;52.320;16.142;2023-01-01T07:46:16;9.70;;;4.00;;
49109;SDS011;34921;52.320;16.142;2023-01-01T07:48:45;7.37;;;3.77;;
49109;SDS011;34921;52.320;16.142;2023-01-01T07:51:13;12.35;;;4.50;;
49109;SDS011;34921;52.320;16.142;2023-01-01T07:53:41;8.43;;;4.07;;
49109;SDS011;34921;52.320;16.142;2023-01-01T07:56:09;6.55;;;3.92;;
49109;SDS011;34921;52.320;16.142;2023-01-01T07:58:38;8.08;;;3.30;;
49109;SDS011;34921;52.320;16.142;2023-01-01T08:01:08;8.73;;;3.37;;
49109;SDS011;34921;52.320;16.142;2023-01-01T08:03:38;8.85;;;3.72;;
49109;SDS011;34921;52.320;16.142;2023-01-01T08:06:07;10.90;;;3.70;;
49109;SDS011;34921;52.320;16.142;2023-01-01T08:08:39;8.53;;;3.55;;
49109;SDS011;34921;52.320;16.142;2023-01-01T08:11:07;8.20;;;3.83;;
49109;SDS011;34921;52.320;16.142;2023-01-01T08:13:35;6.05;;;2.90;;
49109;SDS011;34921;52.320;16.142;2023-01-01T08:16:03;5.67;;;3.02;;
49109;SDS011;34921;52.320;16.142;2023-01-01T08:18:32;7.25;;;3.35;;
49109;SDS011;34921;52.320;16.142;2023-01-01T08:20:59;7.65;;;3.30;;
49109;SDS011;34921;52.320;16.142;2023-01-01T08:23:28;7.60;;;3.17;;
49109;SDS011;34921;52.320;16.142;2023-01-01T08:26:00;7.58;;;2.50;;
49109;SDS011;34921;52.320;16.142;2023-01-01T08:28:29;6.25;;;2.87;;
49109;SDS011;34921;52.320;16.142;2023-01-01T08:30:57;8.85;;;3.17;;
49109;SDS011;34921;52.320;16.142;2023-01-01T08:33:26;7.10;;;3.10;;
49109;SDS011;34921;52.320;16.142;2023-01-01T08:35:54;9.10;;;3.92;;
49109;SDS011;34921;52.320;16.142;2023-01-01T08:38:22;9.60;;;3.27;;
49109;SDS011;34921;52.320;16.142;2023-01-01T08:40:50;10.68;;;3.30;;
49109;SDS011;34921;52.320;16.142;2023-01-01T08:43:18;9.58;;;3.20;;
49109;SDS011;34921;52.320;16.142;2023-01-01T08:45:46;8.95;;;3.00;;
49109;SDS011;34921;52.320;16.142;2023-01-01T08:48:14;7.67;;;2.75;;
49109;SDS011;34921;52.320;16.142;2023-01-01T08:50:42;5.08;;;2.42;;
49109;SDS011;34921;52.320;16.142;2023-01-01T08:53:10;6.40;;;2.60;;
49109;SDS011;34921;52.320;16.142;2023-01-01T08:55:38;9.60;;;3.05;;
49109;SDS011;34921;52.320;16.142;2023-01-01T08:58:06;6.60;;;2.92;;
49109;SDS011;34921;52.320;16.142;2023-01-01T09:00:34;7.90;;;3.08;;
49109;SDS011;34921;52.320;16.142;2023-01-01T09:03:02;6.25;;;2.80;;
49109;SDS011;34921;52.320;16.142;2023-01-01T09:05:30;7.55;;;2.83;;
49109;SDS011;34921;52.320;16.142;2023-01-01T09:07:58;9.15;;;3.70;;
49109;SDS011;34921;52.320;16.142;2023-01-01T09:10:26;6.43;;;2.77;;
49109;SDS011;34921;52.320;16.142;2023-01-01T09:12:54;10.98;;;3.58;;
49109;SDS011;34921;52.320;16.142;2023-01-01T09:15:22;6.25;;;2.95;;
49109;SDS011;34921;52.320;16.142;2023-01-01T09:17:50;6.70;;;3.20;;
49109;SDS011;34921;52.320;16.142;2023-01-01T09:20:18;6.92;;;2.98;;
49109;SDS011;34921;52.320;16.142;2023-01-01T09:22:46;8.40;;;2.98;;
49109;SDS011;34921;52.320;16.142;2023-01-01T09:25:14;8.50;;;3.70;;
49109;SDS011;34921;52.320;16.142;2023-01-01T09:27:42;8.25;;;3.62;;
49109;SDS011;34921;52.320;16.142;2023-01-01T09:30:10;7.72;;;4.37;;
49109;SDS011;34921;52.320;16.142;2023-01-01T09:32:39;7.80;;;3.37;;
49109;SDS011;34921;52.320;16.142;2023-01-01T09:35:08;10.03;;;4.37;;
49109;SDS011;34921;52.320;16.142;2023-01-01T09:37:36;20.50;;;8.38;;
49109;SDS011;34921;52.320;16.142;2023-01-01T09:40:04;13.65;;;4.55;;
49109;SDS011;34921;52.320;16.142;2023-01-01T09:45:23;14.43;;;6.15;;
49109;SDS011;34921;52.320;16.142;2023-01-01T09:48:01;16.35;;;7.95;;
49109;SDS011;34921;52.320;16.142;2023-01-01T09:50:34;12.00;;;5.15;;
49109;SDS011;34921;52.320;16.142;2023-01-01T09:53:30;9.45;;;3.47;;
49109;SDS011;34921;52.320;16.142;2023-01-01T09:55:59;9.48;;;3.58;;
49109;SDS011;34921;52.320;16.142;2023-01-01T09:58:31;9.23;;;3.85;;
49109;SDS011;34921;52.320;16.142;2023-01-01T10:01:02;8.98;;;3.08;;
49109;SDS011;34921;52.320;16.142;2023-01-01T10:03:41;7.97;;;3.15;;
49109;SDS011;34921;52.320;16.142;2023-01-01T10:08:53;6.15;;;2.75;;
49109;SDS011;34921;52.320;16.142;2023-01-01T10:11:50;7.03;;;3.40;;
49109;SDS011;34921;52.320;16.142;2023-01-01T10:14:39;6.55;;;2.90;;
49109;SDS011;34921;52.320;16.142;2023-01-01T10:17:13;6.72;;;2.65;;
49109;SDS011;34921;52.320;16.142;2023-01-01T10:19:48;7.28;;;2.85;;
49109;SDS011;34921;52.320;16.142;2023-01-01T10:22:41;9.10;;;3.55;;
49109;SDS011;34921;52.320;16.142;2023-01-01T10:27:44;8.18;;;2.75;;
49109;SDS011;34921;52.320;16.142;2023-01-01T10:30:28;7.55;;;3.55;;
49109;SDS011;34921;52.320;16.142;2023-01-01T10:32:57;7.15;;;2.87;;
49109;SDS011;34921;52.320;16.142;2023-01-01T10:35:36;7.28;;;3.17;;
49109;SDS011;34921;52.320;16.142;2023-01-01T10:38:20;7.65;;;3.22;;
49109;SDS011;34921;52.320;16.142;2023-01-01T10:41:01;10.58;;;3.00;;
49109;SDS011;34921;52.320;16.142;2023-01-01T10:43:32;6.22;;;2.80;;
49109;SDS011;34921;52.320;16.142;2023-01-01T10:46:01;6.12;;;3.05;;
49109;SDS011;34921;52.320;16.142;2023-01-01T10:48:30;7.00;;;2.83;;
49109;SDS011;34921;52.320;16.142;2023-01-01T10:51:01;7.07;;;3.47;;
49109;SDS011;34921;52.320;16.142;2023-01-01T10:56:10;7.83;;;3.62;;
49109;SDS011;34921;52.320;16.142;2023-01-01T10:58:43;7.97;;;3.70;;
49109;SDS011;34921;52.320;16.142;2023-01-01T11:01:22;7.05;;;3.50;;
49109;SDS011;34921;52.320;16.142;2023-01-01T11:06:35;9.28;;;3.62;;
49109;SDS011;34921;52.320;16.142;2023-01-01T11:09:05;8.88;;;3.67;;
49109;SDS011;34921;52.320;16.142;2023-01-01T11:11:46;8.30;;;3.45;;
49109;SDS011;34921;52.320;16.142;2023-01-01T11:14:22;11.10;;;5.17;;
49109;SDS011;34921;52.320;16.142;2023-01-01T11:16:54;10.78;;;4.47;;
49109;SDS011;34921;52.320;16.142;2023-01-01T11:19:27;8.48;;;3.92;;
49109;SDS011;34921;52.320;16.142;2023-01-01T11:21:57;8.85;;;4.17;;
49109;SDS011;34921;52.320;16.142;2023-01-01T11:24:27;8.45;;;4.40;;
49109;SDS011;34921;52.320;16.142;2023-01-01T11:27:18;6.30;;;3.33;;
49109;SDS011;34921;52.320;16.142;2023-01-01T11:29:51;7.78;;;3.50;;
49109;SDS011;34921;52.320;16.142;2023-01-01T11:32:57;8.13;;;4.10;;
49109;SDS011;34921;52.320;16.142;2023-01-01T11:35:28;9.95;;;3.98;;
49109;SDS011;34921;52.320;16.142;2023-01-01T11:37:58;7.72;;;3.95;;
49109;SDS011;34921;52.320;16.142;2023-01-01T11:40:35;7.37;;;3.60;;
49109;SDS011;34921;52.320;16.142;2023-01-01T11:43:05;7.20;;;3.77;;
49109;SDS011;34921;52.320;16.142;2023-01-01T11:45:38;7.87;;;3.70;;
49109;SDS011;34921;52.320;16.142;2023-01-01T11:48:27;8.43;;;3.95;;
49109;SDS011;34921;52.320;16.142;2023-01-01T11:50:57;8.93;;;4.10;;
49109;SDS011;34921;52.320;16.142;2023-01-01T11:53:35;9.30;;;4.83;;
49109;SDS011;34921;52.320;16.142;2023-01-01T11:56:19;8.28;;;4.20;;
49109;SDS011;34921;52.320;16.142;2023-01-01T11:58:51;8.98;;;4.40;;
49109;SDS011;34921;52.320;16.142;2023-01-01T12:04:08;8.03;;;3.42;;
49109;SDS011;34921;52.320;16.142;2023-01-01T12:09:13;6.65;;;3.40;;
49109;SDS011;34921;52.320;16.142;2023-01-01T12:14:59;7.42;;;4.10;;
49109;SDS011;34921;52.320;16.142;2023-01-01T12:20:09;8.93;;;3.52;;
49109;SDS011;34921;52.320;16.142;2023-01-01T12:22:54;7.55;;;3.50;;
49109;SDS011;34921;52.320;16.142;2023-01-01T12:25:23;7.62;;;4.28;;
49109;SDS011;34921;52.320;16.142;2023-01-01T12:33:31;7.95;;;3.70;;
49109;SDS011;34921;52.320;16.142;2023-01-01T12:38:46;9.73;;;3.72;;
49109;SDS011;34921;52.320;16.142;2023-01-01T12:47:19;8.53;;;4.70;;
49109;SDS011;34921;52.320;16.142;2023-01-01T12:50:16;10.68;;;4.40;;
49109;SDS011;34921;52.320;16.142;2023-01-01T12:56:17;10.25;;;5.00;;
49109;SDS011;34921;52.320;16.142;2023-01-01T12:58:57;10.20;;;5.30;;
49109;SDS011;34921;52.320;16.142;2023-01-01T13:01:30;8.80;;;4.45;;
49109;SDS011;34921;52.320;16.142;2023-01-01T13:04:00;7.45;;;4.53;;
49109;SDS011;34921;52.320;16.142;2023-01-01T13:09:23;10.70;;;5.28;;
49109;SDS011;34921;52.320;16.142;2023-01-01T13:12:00;14.15;;;7.15;;
49109;SDS011;34921;52.320;16.142;2023-01-01T13:14:38;11.97;;;7.67;;
49109;SDS011;34921;52.320;16.142;2023-01-01T13:17:21;12.63;;;7.22;;
49109;SDS011;34921;52.320;16.142;2023-01-01T13:19:57;16.20;;;10.57;;
49109;SDS011;34921;52.320;16.142;2023-01-01T13:22:34;17.90;;;11.93;;
49109;SDS011;34921;52.320;16.142;2023-01-01T13:38:48;11.05;;;5.65;;
49109;SDS011;34921;52.320;16.142;2023-01-01T13:49:11;9.73;;;5.15;;
49109;SDS011;34921;52.320;16.142;2023-01-01T14:00:23;12.65;;;7.00;;
49109;SDS011;34921;52.320;16.142;2023-01-01T14:03:00;13.98;;;6.85;;
49109;SDS011;34921;52.320;16.142;2023-01-01T14:05:35;13.68;;;7.47;;
49109;SDS011;34921;52.320;16.142;2023-01-01T14:08:23;14.85;;;6.80;;
49109;SDS011;34921;52.320;16.142;2023-01-01T14:10:53;15.95;;;9.10;;
49109;SDS011;34921;52.320;16.142;2023-01-01T14:13:21;14.80;;;8.15;;
49109;SDS011;34921;52.320;16.142;2023-01-01T14:15:56;13.85;;;8.33;;
49109;SDS011;34921;52.320;16.142;2023-01-01T14:18:33;17.00;;;10.85;;
49109;SDS011;34921;52.320;16.142;2023-01-01T14:21:08;16.67;;;10.55;;
49109;SDS011;34921;52.320;16.142;2023-01-01T14:23:45;27.20;;;20.25;;
49109;SDS011;34921;52.320;16.142;2023-01-01T14:26:20;20.77;;;11.78;;
49109;SDS011;34921;52.320;16.142;2023-01-01T14:28:56;24.10;;;14.00;;
49109;SDS011;34921;52.320;16.142;2023-01-01T14:31:29;15.93;;;8.65;;
49109;SDS011;34921;52.320;16.142;2023-01-01T14:34:12;15.18;;;7.45;;
49109;SDS011;34921;52.320;16.142;2023-01-01T14:37:04;11.45;;;6.75;;
49109;SDS011;34921;52.320;16.142;2023-01-01T14:39:34;32.20;;;20.37;;
49109;SDS011;34921;52.320;16.142;2023-01-01T14:42:08;19.37;;;13.53;;
49109;SDS011;34921;52.320;16.142;2023-01-01T14:44:43;25.12;;;13.93;;
49109;SDS011;34921;52.320;16.142;2023-01-01T14:47:28;54.58;;;37.28;;
49109;SDS011;34921;52.320;16.142;2023-01-01T14:50:16;40.12;;;28.50;;
49109;SDS011;34921;52.320;16.142;2023-01-01T14:52:51;72.55;;;51.42;;
49109;SDS011;34921;52.320;16.142;2023-01-01T14:55:22;33.23;;;22.07;;
49109;SDS011;34921;52.320;16.142;2023-01-01T14:57:56;25.65;;;16.93;;
49109;SDS011;34921;52.320;16.142;2023-01-01T15:00:27;54.65;;;33.67;;
49109;SDS011;34921;52.320;16.142;2023-01-01T15:03:16;95.28;;;55.20;;
49109;SDS011;34921;52.320;16.142;2023-01-01T15:05:58;99.32;;;58.98;;
49109;SDS011;34921;52.320;16.142;2023-01-01T15:08:30;81.70;;;54.05;;
49109;SDS011;34921;52.320;16.142;2023-01-01T15:10:58;52.20;;;34.40;;
49109;SDS011;34921;52.320;16.142;2023-01-01T15:13:29;40.67;;;20.75;;
49109;SDS011;34921;52.320;16.142;2023-01-01T15:16:13;29.40;;;16.65;;
49109;SDS011;34921;52.320;16.142;2023-01-01T15:18:44;42.23;;;27.10;;
49109;SDS011;34921;52.320;16.142;2023-01-01T15:23:50;36.88;;;27.98;;
49109;SDS011;34921;52.320;16.142;2023-01-01T15:26:24;32.53;;;20.55;;
49109;SDS011;34921;52.320;16.142;2023-01-01T15:28:58;56.45;;;39.98;;
49109;SDS011;34921;52.320;16.142;2023-01-01T15:31:37;115.92;;;78.72;;
49109;SDS011;34921;52.320;16.142;2023-01-01T15:36:47;215.60;;;152.00;;
49109;SDS011;34921;52.320;16.142;2023-01-01T15:39:17;129.97;;;96.05;;
49109;SDS011;34921;52.320;16.142;2023-01-01T15:41:46;92.00;;;80.20;;
49109;SDS011;34921;52.320;16.142;2023-01-01T15:46:49;39.85;;;29.98;;
49109;SDS011;34921;52.320;16.142;2023-01-01T15:49:24;35.43;;;22.80;;
49109;SDS011;34921;52.320;16.142;2023-01-01T15:51:57;31.10;;;18.02;;
49109;SDS011;34921;52.320;16.142;2023-01-01T15:54:27;23.75;;;14.20;;
49109;SDS011;34921;52.320;16.142;2023-01-01T15:56:57;28.07;;;18.07;;
49109;SDS011;34921;52.320;16.142;2023-01-01T15:59:26;40.92;;;24.07;;
49109;SDS011;34921;52.320;16.142;2023-01-01T16:02:13;41.35;;;23.40;;
49109;SDS011;34921;52.320;16.142;2023-01-01T16:04:47;41.98;;;23.70;;
49109;SDS011;34921;52.320;16.142;2023-01-01T16:07:18;37.60;;;22.53;;
49109;SDS011;34921;52.320;16.142;2023-01-01T16:09:50;51.45;;;28.30;;
49109;SDS011;34921;52.320;16.142;2023-01-01T16:12:20;60.40;;;34.58;;
49109;SDS011;34921;52.320;16.142;2023-01-01T16:14:48;70.42;;;39.20;;
49109;SDS011;34921;52.320;16.142;2023-01-01T16:17:17;82.12;;;49.25;;
49109;SDS011;34921;52.320;16.142;2023-01-01T16:22:15;90.75;;;56.05;;
49109;SDS011;34921;52.320;16.142;2023-01-01T16:24:44;78.75;;;50.50;;
49109;SDS011;34921;52.320;16.142;2023-01-01T16:27:13;78.37;;;42.95;;
49109;SDS011;34921;52.320;16.142;2023-01-01T16:29:41;67.08;;;39.10;;
49109;SDS011;34921;52.320;16.142;2023-01-01T16:32:16;65.05;;;38.10;;
49109;SDS011;34921;52.320;16.142;2023-01-01T16:34:45;72.10;;;45.30;;
49109;SDS011;34921;52.320;16.142;2023-01-01T16:37:13;64.25;;;40.80;;
49109;SDS011;34921;52.320;16.142;2023-01-01T16:39:42;72.82;;;39.55;;
49109;SDS011;34921;52.320;16.142;2023-01-01T16:42:11;70.62;;;39.83;;
49109;SDS011;34921;52.320;16.142;2023-01-01T16:44:40;68.02;;;38.13;;
49109;SDS011;34921;52.320;16.142;2023-01-01T16:47:09;65.95;;;36.00;;
49109;SDS011;34921;52.320;16.142;2023-01-01T16:49:38;57.78;;;36.03;;